sensor_id;sensor_type;location;lat;lon;timestamp;pressure;altitude;pressure_sealevel;temperature;humidity
20710;BME280;10516;51.518;9.864;2023-03-12T00:02:01;98433.81;;;0.82;73.01
20710;BME280;10516;51.518;9.864;2023-03-12T00:04:26;98435.38;;;0.70;72.98
20710;BME280;10516;51.518;9.864;2023-03-12T00:06:52;98428.31;;;0.70;72.98
20710;BME280;10516;51.518;9.864;2023-03-12T00:09:17;98436.19;;;0.70;73.49
20710;BME280;10516;51.518;9.864;2023-03-12T00:11:43;98435.22;;;0.78;73.21
20710;BME280;10516;51.518;9.864;2023-03-12T00:14:08;98445.91;;;0.76;73.20
20710;BME280;10516;51.518;9.864;2023-03-12T00:16:33;98454.59;;;0.77;73.10
20710;BME280;10516;51.518;9.864;2023-03-12T00:18:58;98446.66;;;0.64;72.82
20710;BME280;10516;51.518;9.864;2023-03-12T00:21:24;98445.25;;;-0.28;73.31
20710;BME280;10516;51.518;9.864;2023-03-12T00:23:49;98450.97;;;-0.67;75.25
20710;BME280;10516;51.518;9.864;2023-03-12T00:26:15;98453.56;;;-0.46;76.26
20710;BME280;10516;51.518;9.864;2023-03-12T00:28:41;98453.41;;;-0.44;76.42
20710;BME280;10516;51.518;9.864;2023-03-12T00:31:14;98457.38;;;-0.27;76.38
20710;BME280;10516;51.518;9.864;2023-03-12T00:33:40;98453.94;;;-0.91;74.61
20710;BME280;10516;51.518;9.864;2023-03-12T00:36:06;98458.22;;;-1.05;75.72
20710;BME280;10516;51.518;9.864;2023-03-12T00:38:31;98459.22;;;-0.70;77.32
20710;BME280;10516;51.518;9.864;2023-03-12T00:40:56;98455.34;;;-1.10;76.16
20710;BME280;10516;51.518;9.864;2023-03-12T00:43:22;98461.06;;;-1.35;76.40
20710;BME280;10516;51.518;9.864;2023-03-12T00:45:47;98454.78;;;-0.69;78.46
20710;BME280;10516;51.518;9.864;2023-03-12T00:48:12;98450.91;;;-0.95;77.06
20710;BME280;10516;51.518;9.864;2023-03-12T00:50:37;98453.81;;;-0.20;76.04
20710;BME280;10516;51.518;9.864;2023-03-12T00:53:03;98453.16;;;-0.49;75.15
20710;BME280;10516;51.518;9.864;2023-03-12T00:55:28;98451.28;;;-1.77;75.71
20710;BME280;10516;51.518;9.864;2023-03-12T00:57:54;98456.56;;;-1.41;77.61
20710;BME280;10516;51.518;9.864;2023-03-12T01:00:19;98453.59;;;-1.68;77.92
20710;BME280;10516;51.518;9.864;2023-03-12T01:02:44;98451.63;;;-1.66;77.72
20710;BME280;10516;51.518;9.864;2023-03-12T01:05:10;98448.16;;;-0.65;77.90
20710;BME280;10516;51.518;9.864;2023-03-12T01:07:36;98451.63;;;-0.16;76.93
20710;BME280;10516;51.518;9.864;2023-03-12T01:10:01;98451.00;;;-0.18;74.93
20710;BME280;10516;51.518;9.864;2023-03-12T01:12:26;98450.00;;;0.11;74.96
20710;BME280;10516;51.518;9.864;2023-03-12T01:14:52;98440.59;;;0.23;74.22
20710;BME280;10516;51.518;9.864;2023-03-12T01:17:17;98448.72;;;0.28;74.40
20710;BME280;10516;51.518;9.864;2023-03-12T01:19:42;98441.38;;;-0.11;74.83
20710;BME280;10516;51.518;9.864;2023-03-12T01:22:07;98433.50;;;0.17;74.38
20710;BME280;10516;51.518;9.864;2023-03-12T01:24:33;98446.19;;;0.13;74.48
20710;BME280;10516;51.518;9.864;2023-03-12T01:26:58;98439.81;;;0.29;73.89
20710;BME280;10516;51.518;9.864;2023-03-12T01:29:23;98443.69;;;0.33;73.37
20710;BME280;10516;51.518;9.864;2023-03-12T01:31:48;98425.53;;;0.38;73.43
20710;BME280;10516;51.518;9.864;2023-03-12T01:34:14;98435.19;;;0.31;73.34
20710;BME280;10516;51.518;9.864;2023-03-12T01:36:39;98429.19;;;0.09;73.31
20710;BME280;10516;51.518;9.864;2023-03-12T01:39:05;98432.16;;;0.27;73.90
20710;BME280;10516;51.518;9.864;2023-03-12T01:41:31;98429.31;;;0.29;73.34
20710;BME280;10516;51.518;9.864;2023-03-12T01:43:57;98431.16;;;0.28;73.50
20710;BME280;10516;51.518;9.864;2023-03-12T01:46:38;98434.47;;;0.16;74.14
20710;BME280;10516;51.518;9.864;2023-03-12T01:54:14;98437.38;;;-0.07;74.18
20710;BME280;10516;51.518;9.864;2023-03-12T01:56:41;98430.75;;;-0.31;74.64
20710;BME280;10516;51.518;9.864;2023-03-12T01:59:11;98426.88;;;-0.07;75.02
20710;BME280;10516;51.518;9.864;2023-03-12T02:01:38;98423.69;;;-0.03;74.71
20710;BME280;10516;51.518;9.864;2023-03-12T02:04:05;98419.34;;;-0.17;73.73
20710;BME280;10516;51.518;9.864;2023-03-12T02:07:31;98426.97;;;-0.22;75.23
20710;BME280;10516;51.518;9.864;2023-03-12T02:09:25;98416.28;;;0.08;74.62
20710;BME280;10516;51.518;9.864;2023-03-12T02:11:50;98420.38;;;0.17;73.89
20710;BME280;10516;51.518;9.864;2023-03-12T02:14:15;98414.59;;;0.28;73.82
20710;BME280;10516;51.518;9.864;2023-03-12T02:16:41;98416.06;;;0.37;73.28
20710;BME280;10516;51.518;9.864;2023-03-12T02:19:08;98415.44;;;0.35;73.65
20710;BME280;10516;51.518;9.864;2023-03-12T02:21:37;98409.75;;;0.31;73.60
20710;BME280;10516;51.518;9.864;2023-03-12T02:24:07;98412.41;;;0.38;73.29
20710;BME280;10516;51.518;9.864;2023-03-12T02:26:37;98411.00;;;0.42;73.47
20710;BME280;10516;51.518;9.864;2023-03-12T02:29:03;98410.81;;;0.37;73.29
20710;BME280;10516;51.518;9.864;2023-03-12T02:31:30;98411.84;;;0.42;73.12
20710;BME280;10516;51.518;9.864;2023-03-12T02:33:57;98411.00;;;0.42;72.97
20710;BME280;10516;51.518;9.864;2023-03-12T02:36:22;98416.97;;;0.23;73.67
20710;BME280;10516;51.518;9.864;2023-03-12T02:38:48;98418.44;;;-0.03;74.24
20710;BME280;10516;51.518;9.864;2023-03-12T02:41:30;98417.34;;;-0.42;74.99
20710;BME280;10516;51.518;9.864;2023-03-12T02:43:58;98408.59;;;-1.13;76.31
20710;BME280;10516;51.518;9.864;2023-03-12T02:46:25;98401.00;;;-1.43;76.14
20710;BME280;10516;51.518;9.864;2023-03-12T02:48:50;98409.56;;;-1.49;78.16
20710;BME280;10516;51.518;9.864;2023-03-12T02:51:16;98403.19;;;-1.91;79.01
20710;BME280;10516;51.518;9.864;2023-03-12T02:53:41;98411.06;;;-1.91;79.25
20710;BME280;10516;51.518;9.864;2023-03-12T02:56:07;98408.63;;;-1.78;79.19
20710;BME280;10516;51.518;9.864;2023-03-12T02:58:32;98403.84;;;-2.03;80.17
20710;BME280;10516;51.518;9.864;2023-03-12T03:00:58;98416.91;;;-1.89;78.59
20710;BME280;10516;51.518;9.864;2023-03-12T03:03:24;98409.69;;;-1.58;78.88
20710;BME280;10516;51.518;9.864;2023-03-12T03:05:49;98408.78;;;-1.94;78.53
20710;BME280;10516;51.518;9.864;2023-03-12T03:08:15;98411.00;;;-1.11;78.80
20710;BME280;10516;51.518;9.864;2023-03-12T03:10:41;98405.69;;;-1.18;78.71
20710;BME280;10516;51.518;9.864;2023-03-12T03:13:06;98404.81;;;-1.61;77.93
20710;BME280;10516;51.518;9.864;2023-03-12T03:15:32;98402.94;;;-1.67;79.29
20710;BME280;10516;51.518;9.864;2023-03-12T03:17:57;98402.66;;;-2.01;79.49
20710;BME280;10516;51.518;9.864;2023-03-12T03:20:22;98404.53;;;-2.24;80.35
20710;BME280;10516;51.518;9.864;2023-03-12T03:22:49;98407.81;;;-1.93;81.29
20710;BME280;10516;51.518;9.864;2023-03-12T03:25:15;98411.06;;;-0.90;80.16
20710;BME280;10516;51.518;9.864;2023-03-12T03:27:41;98402.81;;;-0.66;78.66
20710;BME280;10516;51.518;9.864;2023-03-12T03:30:06;98404.38;;;-0.93;79.04
20710;BME280;10516;51.518;9.864;2023-03-12T03:32:32;98407.91;;;-1.00;78.05
20710;BME280;10516;51.518;9.864;2023-03-12T03:34:57;98411.28;;;-0.85;78.58
20710;BME280;10516;51.518;9.864;2023-03-12T03:37:22;98417.28;;;-0.21;77.64
20710;BME280;10516;51.518;9.864;2023-03-12T03:39:48;98413.09;;;0.12;75.65
20710;BME280;10516;51.518;9.864;2023-03-12T03:42:13;98409.34;;;0.28;75.30
20710;BME280;10516;51.518;9.864;2023-03-12T03:44:38;98407.34;;;0.30;75.21
20710;BME280;10516;51.518;9.864;2023-03-12T03:47:03;98412.00;;;0.00;74.46
20710;BME280;10516;51.518;9.864;2023-03-12T03:49:29;98418.41;;;0.25;75.50
20710;BME280;10516;51.518;9.864;2023-03-12T03:51:54;98407.75;;;0.33;74.97
20710;BME280;10516;51.518;9.864;2023-03-12T03:54:19;98413.88;;;0.47;74.73
20710;BME280;10516;51.518;9.864;2023-03-12T03:56:45;98411.19;;;0.34;74.67
20710;BME280;10516;51.518;9.864;2023-03-12T03:59:11;98407.81;;;0.46;74.88
20710;BME280;10516;51.518;9.864;2023-03-12T04:01:36;98413.03;;;0.40;74.62
20710;BME280;10516;51.518;9.864;2023-03-12T04:04:02;98416.09;;;0.43;74.63
20710;BME280;10516;51.518;9.864;2023-03-12T04:06:28;98404.25;;;0.20;74.75
20710;BME280;10516;51.518;9.864;2023-03-12T04:08:54;98401.69;;;0.26;75.19
20710;BME280;10516;51.518;9.864;2023-03-12T04:11:20;98397.22;;;0.27;75.09
20710;BME280;10516;51.518;9.864;2023-03-12T04:13:45;98404.63;;;-0.18;74.94
20710;BME280;10516;51.518;9.864;2023-03-12T04:16:11;98391.97;;;0.27;75.27
20710;BME280;10516;51.518;9.864;2023-03-12T04:18:37;98388.41;;;0.41;74.91
20710;BME280;10516;51.518;9.864;2023-03-12T04:21:03;98391.28;;;0.12;74.60
20710;BME280;10516;51.518;9.864;2023-03-12T04:23:29;98399.38;;;0.17;75.39
20710;BME280;10516;51.518;9.864;2023-03-12T04:25:54;98400.78;;;-0.43;76.13
20710;BME280;10516;51.518;9.864;2023-03-12T04:28:19;98399.56;;;0.09;76.35
20710;BME280;10516;51.518;9.864;2023-03-12T04:30:44;98401.06;;;-0.04;75.54
20710;BME280;10516;51.518;9.864;2023-03-12T04:33:18;98387.66;;;0.13;75.44
20710;BME280;10516;51.518;9.864;2023-03-12T04:35:50;98393.19;;;0.31;75.12
20710;BME280;10516;51.518;9.864;2023-03-12T04:38:16;98393.63;;;0.34;75.02
20710;BME280;10516;51.518;9.864;2023-03-12T04:40:41;98399.28;;;0.38;74.74
20710;BME280;10516;51.518;9.864;2023-03-12T04:43:07;98396.28;;;0.41;74.58
20710;BME280;10516;51.518;9.864;2023-03-12T04:45:32;98394.81;;;0.32;74.81
20710;BME280;10516;51.518;9.864;2023-03-12T04:47:57;98390.81;;;0.36;74.36
20710;BME280;10516;51.518;9.864;2023-03-12T04:50:22;98386.06;;;0.18;74.93
20710;BME280;10516;51.518;9.864;2023-03-12T04:52:48;98392.91;;;-0.15;74.28
20710;BME280;10516;51.518;9.864;2023-03-12T04:55:13;98380.84;;;0.25;75.39
20710;BME280;10516;51.518;9.864;2023-03-12T04:57:38;98383.91;;;0.28;74.67
20710;BME280;10516;51.518;9.864;2023-03-12T05:00:03;98380.50;;;0.34;74.42
20710;BME280;10516;51.518;9.864;2023-03-12T05:02:34;98375.47;;;0.33;74.24
20710;BME280;10516;51.518;9.864;2023-03-12T05:05:00;98385.56;;;0.36;73.87
20710;BME280;10516;51.518;9.864;2023-03-12T05:07:25;98381.09;;;0.30;74.36
20710;BME280;10516;51.518;9.864;2023-03-12T05:09:51;98381.69;;;0.32;74.39
20710;BME280;10516;51.518;9.864;2023-03-12T05:12:16;98377.81;;;0.21;74.15
20710;BME280;10516;51.518;9.864;2023-03-12T05:14:41;98389.91;;;0.22;74.01
20710;BME280;10516;51.518;9.864;2023-03-12T05:17:06;98376.84;;;0.29;73.82
20710;BME280;10516;51.518;9.864;2023-03-12T05:19:32;98369.94;;;0.21;74.16
20710;BME280;10516;51.518;9.864;2023-03-12T05:21:57;98372.53;;;0.15;74.63
20710;BME280;10516;51.518;9.864;2023-03-12T05:24:22;98367.31;;;0.21;74.32
20710;BME280;10516;51.518;9.864;2023-03-12T05:26:48;98369.34;;;0.19;74.09
20710;BME280;10516;51.518;9.864;2023-03-12T05:29:13;98364.91;;;0.20;74.39
20710;BME280;10516;51.518;9.864;2023-03-12T05:31:39;98366.13;;;0.24;73.90
20710;BME280;10516;51.518;9.864;2023-03-12T05:34:04;98373.97;;;0.17;73.89
20710;BME280;10516;51.518;9.864;2023-03-12T05:36:30;98372.53;;;0.15;74.13
20710;BME280;10516;51.518;9.864;2023-03-12T05:38:55;98368.72;;;0.17;74.45
20710;BME280;10516;51.518;9.864;2023-03-12T05:41:24;98377.38;;;0.18;74.27
20710;BME280;10516;51.518;9.864;2023-03-12T05:43:53;98378.63;;;0.22;73.89
20710;BME280;10516;51.518;9.864;2023-03-12T05:46:20;98371.81;;;-0.07;74.21
20710;BME280;10516;51.518;9.864;2023-03-12T05:48:45;98363.50;;;0.24;74.32
20710;BME280;10516;51.518;9.864;2023-03-12T05:51:10;98371.31;;;0.11;74.20
20710;BME280;10516;51.518;9.864;2023-03-12T05:53:36;98359.47;;;0.28;74.19
20710;BME280;10516;51.518;9.864;2023-03-12T05:56:05;98355.50;;;-0.03;75.78
20710;BME280;10516;51.518;9.864;2023-03-12T05:58:31;98358.25;;;0.24;74.76
20710;BME280;10516;51.518;9.864;2023-03-12T06:00:57;98357.16;;;0.12;74.46
20710;BME280;10516;51.518;9.864;2023-03-12T06:03:22;98358.03;;;0.19;75.15
20710;BME280;10516;51.518;9.864;2023-03-12T06:05:48;98346.16;;;0.29;74.71
20710;BME280;10516;51.518;9.864;2023-03-12T06:08:14;98344.38;;;0.36;74.74
20710;BME280;10516;51.518;9.864;2023-03-12T06:10:39;98353.38;;;0.21;74.84
20710;BME280;10516;51.518;9.864;2023-03-12T06:13:04;98352.34;;;0.09;74.84
20710;BME280;10516;51.518;9.864;2023-03-12T06:15:30;98353.56;;;0.13;74.94
20710;BME280;10516;51.518;9.864;2023-03-12T06:17:55;98350.97;;;0.19;75.30
20710;BME280;10516;51.518;9.864;2023-03-12T06:20:21;98352.75;;;0.12;75.02
20710;BME280;10516;51.518;9.864;2023-03-12T06:22:46;98354.19;;;0.21;75.56
20710;BME280;10516;51.518;9.864;2023-03-12T06:25:11;98359.44;;;0.21;75.20
20710;BME280;10516;51.518;9.864;2023-03-12T06:27:37;98352.00;;;0.25;75.25
20710;BME280;10516;51.518;9.864;2023-03-12T06:30:03;98356.06;;;0.34;75.12
20710;BME280;10516;51.518;9.864;2023-03-12T06:32:28;98346.38;;;0.34;74.75
20710;BME280;10516;51.518;9.864;2023-03-12T06:34:53;98352.81;;;0.25;75.67
20710;BME280;10516;51.518;9.864;2023-03-12T06:37:19;98355.22;;;0.27;75.32
20710;BME280;10516;51.518;9.864;2023-03-12T06:39:44;98342.72;;;0.29;75.44
20710;BME280;10516;51.518;9.864;2023-03-12T06:42:09;98342.50;;;0.24;75.49
20710;BME280;10516;51.518;9.864;2023-03-12T06:44:37;98344.34;;;0.30;75.82
20710;BME280;10516;51.518;9.864;2023-03-12T06:47:02;98346.41;;;0.41;75.75
20710;BME280;10516;51.518;9.864;2023-03-12T06:49:27;98338.69;;;0.26;75.60
20710;BME280;10516;51.518;9.864;2023-03-12T06:51:56;98331.06;;;0.44;75.37
20710;BME280;10516;51.518;9.864;2023-03-12T06:54:21;98336.41;;;0.17;76.32
20710;BME280;10516;51.518;9.864;2023-03-12T06:56:46;98329.81;;;0.34;76.44
20710;BME280;10516;51.518;9.864;2023-03-12T06:59:11;98314.22;;;0.19;76.27
20710;BME280;10516;51.518;9.864;2023-03-12T07:01:37;98315.75;;;0.00;77.10
20710;BME280;10516;51.518;9.864;2023-03-12T07:04:02;98310.78;;;0.19;77.21
20710;BME280;10516;51.518;9.864;2023-03-12T07:06:27;98316.69;;;0.27;76.66
20710;BME280;10516;51.518;9.864;2023-03-12T07:08:53;98303.97;;;0.31;76.60
20710;BME280;10516;51.518;9.864;2023-03-12T07:11:18;98311.78;;;0.18;77.08
20710;BME280;10516;51.518;9.864;2023-03-12T07:13:43;98311.78;;;0.18;77.38
20710;BME280;10516;51.518;9.864;2023-03-12T07:16:09;98309.09;;;0.05;78.81
20710;BME280;10516;51.518;9.864;2023-03-12T07:18:35;98308.47;;;0.43;77.59
20710;BME280;10516;51.518;9.864;2023-03-12T07:21:00;98308.50;;;0.56;76.94
20710;BME280;10516;51.518;9.864;2023-03-12T07:23:25;98314.53;;;0.57;76.61
20710;BME280;10516;51.518;9.864;2023-03-12T07:25:51;98305.06;;;0.56;76.57
20710;BME280;10516;51.518;9.864;2023-03-12T07:28:17;98298.81;;;0.70;77.06
20710;BME280;10516;51.518;9.864;2023-03-12T07:30:42;98294.94;;;0.53;76.72
20710;BME280;10516;51.518;9.864;2023-03-12T07:33:14;98287.53;;;0.63;77.01
20710;BME280;10516;51.518;9.864;2023-03-12T07:35:39;98298.03;;;0.76;77.79
20710;BME280;10516;51.518;9.864;2023-03-12T07:38:05;98302.19;;;0.44;77.21
20710;BME280;10516;51.518;9.864;2023-03-12T07:40:30;98285.88;;;0.55;77.08
20710;BME280;10516;51.518;9.864;2023-03-12T07:42:56;98294.84;;;1.00;76.75
20710;BME280;10516;51.518;9.864;2023-03-12T07:45:22;98287.53;;;0.63;76.61
20710;BME280;10516;51.518;9.864;2023-03-12T07:47:47;98294.41;;;0.77;76.97
20710;BME280;10516;51.518;9.864;2023-03-12T07:50:16;98295.84;;;0.86;77.46
20710;BME280;10516;51.518;9.864;2023-03-12T07:52:42;98283.47;;;0.54;77.04
20710;BME280;10516;51.518;9.864;2023-03-12T07:55:08;98286.09;;;0.67;76.21
20710;BME280;10516;51.518;9.864;2023-03-12T07:57:33;98286.38;;;1.05;76.98
20710;BME280;10516;51.518;9.864;2023-03-12T08:00:02;98295.00;;;0.86;76.68
20710;BME280;10516;51.518;9.864;2023-03-12T08:02:39;98288.16;;;0.78;76.72
20710;BME280;10516;51.518;9.864;2023-03-12T08:05:05;98287.56;;;1.02;77.05
20710;BME280;10516;51.518;9.864;2023-03-12T08:07:30;98287.16;;;0.99;76.35
20710;BME280;10516;51.518;9.864;2023-03-12T08:09:59;98284.94;;;1.09;76.47
20710;BME280;10516;51.518;9.864;2023-03-12T08:12:24;98282.09;;;0.84;76.00
20710;BME280;10516;51.518;9.864;2023-03-12T08:14:49;98280.47;;;1.03;75.88
20710;BME280;10516;51.518;9.864;2023-03-12T08:17:15;98285.13;;;1.27;76.04
20710;BME280;10516;51.518;9.864;2023-03-12T08:19:40;98279.06;;;1.39;75.31
20710;BME280;10516;51.518;9.864;2023-03-12T08:22:06;98278.25;;;1.52;76.29
20710;BME280;10516;51.518;9.864;2023-03-12T08:24:31;98281.91;;;1.18;74.55
20710;BME280;10516;51.518;9.864;2023-03-12T08:26:57;98269.97;;;1.35;75.95
20710;BME280;10516;51.518;9.864;2023-03-12T08:29:22;98265.72;;;1.47;75.87
20710;BME280;10516;51.518;9.864;2023-03-12T08:31:47;98270.94;;;1.54;75.70
20710;BME280;10516;51.518;9.864;2023-03-12T08:34:12;98276.19;;;1.61;75.78
20710;BME280;10516;51.518;9.864;2023-03-12T08:36:38;98270.97;;;1.41;74.81
20710;BME280;10516;51.518;9.864;2023-03-12T08:39:03;98266.28;;;1.63;76.08
20710;BME280;10516;51.518;9.864;2023-03-12T08:41:28;98274.75;;;1.78;75.67
20710;BME280;10516;51.518;9.864;2023-03-12T08:44:20;98279.75;;;1.92;75.40
20710;BME280;10516;51.518;9.864;2023-03-12T08:46:45;98260.53;;;1.98;75.01
20710;BME280;10516;51.518;9.864;2023-03-12T08:49:11;98262.41;;;1.72;75.24
20710;BME280;10516;51.518;9.864;2023-03-12T08:51:37;98273.84;;;2.03;74.93
20710;BME280;10516;51.518;9.864;2023-03-12T08:54:02;98270.59;;;2.08;74.80
20710;BME280;10516;51.518;9.864;2023-03-12T08:56:29;98274.84;;;2.09;74.62
20710;BME280;10516;51.518;9.864;2023-03-12T08:58:54;98265.91;;;2.10;74.59
20710;BME280;10516;51.518;9.864;2023-03-12T09:01:19;98251.84;;;1.91;73.67
20710;BME280;10516;51.518;9.864;2023-03-12T09:03:44;98246.78;;;1.90;73.09
20710;BME280;10516;51.518;9.864;2023-03-12T09:06:12;98248.56;;;2.02;73.73
20710;BME280;10516;51.518;9.864;2023-03-12T09:08:40;98247.28;;;2.18;74.43
20710;BME280;10516;51.518;9.864;2023-03-12T09:11:10;98240.66;;;2.02;73.82
20710;BME280;10516;51.518;9.864;2023-03-12T09:13:36;98247.91;;;2.13;73.96
20710;BME280;10516;51.518;9.864;2023-03-12T09:16:01;98244.09;;;2.03;74.06
20710;BME280;10516;51.518;9.864;2023-03-12T09:18:27;98229.44;;;2.20;73.91
20710;BME280;10516;51.518;9.864;2023-03-12T09:20:53;98233.88;;;2.26;73.67
20710;BME280;10516;51.518;9.864;2023-03-12T09:23:18;98233.13;;;2.12;71.50
20710;BME280;10516;51.518;9.864;2023-03-12T09:25:44;98225.31;;;2.37;73.58
20710;BME280;10516;51.518;9.864;2023-03-12T09:28:10;98218.31;;;2.18;71.32
20710;BME280;10516;51.518;9.864;2023-03-12T09:30:35;98216.63;;;2.30;72.16
20710;BME280;10516;51.518;9.864;2023-03-12T09:33:01;98211.03;;;2.51;73.26
20710;BME280;10516;51.518;9.864;2023-03-12T09:35:27;98210.09;;;2.39;71.93
20710;BME280;10516;51.518;9.864;2023-03-12T09:37:52;98207.25;;;2.41;73.17
20710;BME280;10516;51.518;9.864;2023-03-12T09:40:18;98204.22;;;2.37;71.96
20710;BME280;10516;51.518;9.864;2023-03-12T09:42:47;98206.06;;;2.37;71.11
20710;BME280;10516;51.518;9.864;2023-03-12T09:45:27;98209.66;;;2.73;73.56
20710;BME280;10516;51.518;9.864;2023-03-12T09:47:55;98217.91;;;2.52;71.80
20710;BME280;10516;51.518;9.864;2023-03-12T09:50:24;98201.91;;;2.78;73.02
20710;BME280;10516;51.518;9.864;2023-03-12T09:53:01;98208.31;;;2.64;71.76
20710;BME280;10516;51.518;9.864;2023-03-12T09:55:27;98196.53;;;2.91;73.25
20710;BME280;10516;51.518;9.864;2023-03-12T09:57:56;98200.06;;;2.85;71.23
20710;BME280;10516;51.518;9.864;2023-03-12T10:00:25;98204.63;;;2.96;71.40
20710;BME280;10516;51.518;9.864;2023-03-12T10:03:25;98206.97;;;3.04;71.89
20710;BME280;10516;51.518;9.864;2023-03-12T10:08:27;98191.91;;;2.87;71.94
20710;BME280;10516;51.518;9.864;2023-03-12T10:13:35;98208.50;;;2.94;71.35
20710;BME280;10516;51.518;9.864;2023-03-12T10:26:13;98197.66;;;3.02;72.97
20710;BME280;10516;51.518;9.864;2023-03-12T10:31:06;98198.72;;;3.19;72.17
20710;BME280;10516;51.518;9.864;2023-03-12T10:36:15;98193.56;;;3.06;71.96
20710;BME280;10516;51.518;9.864;2023-03-12T10:38:41;98188.91;;;2.83;72.10
20710;BME280;10516;51.518;9.864;2023-03-12T10:41:13;98192.22;;;3.22;73.72
20710;BME280;10516;51.518;9.864;2023-03-12T10:43:39;98189.81;;;2.95;72.66
20710;BME280;10516;51.518;9.864;2023-03-12T10:46:27;98191.81;;;3.00;73.92
20710;BME280;10516;51.518;9.864;2023-03-12T10:54:26;98203.75;;;3.02;74.66
20710;BME280;10516;51.518;9.864;2023-03-12T10:56:52;98197.84;;;3.07;75.48
20710;BME280;10516;51.518;9.864;2023-03-12T10:59:21;98196.16;;;3.13;74.85
20710;BME280;10516;51.518;9.864;2023-03-12T11:01:48;98195.44;;;3.06;75.25
20710;BME280;10516;51.518;9.864;2023-03-12T11:06:39;98186.38;;;2.95;76.30
20710;BME280;10516;51.518;9.864;2023-03-12T11:11:31;98184.19;;;2.92;77.17
20710;BME280;10516;51.518;9.864;2023-03-12T11:14:07;98172.25;;;2.89;76.97
20710;BME280;10516;51.518;9.864;2023-03-12T11:16:39;98174.97;;;2.76;77.66
20710;BME280;10516;51.518;9.864;2023-03-12T11:19:04;98176.28;;;2.67;78.07
20710;BME280;10516;51.518;9.864;2023-03-12T11:21:31;98178.91;;;2.67;78.81
20710;BME280;10516;51.518;9.864;2023-03-12T11:26:33;98172.81;;;2.11;82.26
20710;BME280;10516;51.518;9.864;2023-03-12T11:34:34;98163.16;;;2.85;79.37
20710;BME280;10516;51.518;9.864;2023-03-12T11:42:23;98161.38;;;2.79;79.95
20710;BME280;10516;51.518;9.864;2023-03-12T11:47:27;98158.06;;;2.90;79.37
20710;BME280;10516;51.518;9.864;2023-03-12T11:53:37;98141.31;;;2.78;80.68
20710;BME280;10516;51.518;9.864;2023-03-12T11:55:49;98149.81;;;2.80;80.57
20710;BME280;10516;51.518;9.864;2023-03-12T12:06:06;98126.28;;;2.29;84.14
20710;BME280;10516;51.518;9.864;2023-03-12T12:11:10;98115.44;;;2.51;83.74
20710;BME280;10516;51.518;9.864;2023-03-12T12:21:43;98098.75;;;2.81;82.24
20710;BME280;10516;51.518;9.864;2023-03-12T12:27:01;98099.25;;;2.90;81.05
20710;BME280;10516;51.518;9.864;2023-03-12T12:29:46;98097.16;;;3.17;79.62
20710;BME280;10516;51.518;9.864;2023-03-12T12:40:19;98083.06;;;2.68;82.68
20710;BME280;10516;51.518;9.864;2023-03-12T12:45:17;98072.38;;;2.99;79.99
20710;BME280;10516;51.518;9.864;2023-03-12T12:47:45;98067.63;;;2.90;80.63
20710;BME280;10516;51.518;9.864;2023-03-12T12:50:13;98064.34;;;2.94;80.98
20710;BME280;10516;51.518;9.864;2023-03-12T12:52:40;98067.41;;;2.91;81.67
20710;BME280;10516;51.518;9.864;2023-03-12T12:55:06;98061.16;;;2.68;83.75
20710;BME280;10516;51.518;9.864;2023-03-12T13:03:04;98063.59;;;2.87;82.94
20710;BME280;10516;51.518;9.864;2023-03-12T13:08:02;98059.16;;;2.88;83.09
20710;BME280;10516;51.518;9.864;2023-03-12T13:13:01;98061.56;;;2.89;83.54
20710;BME280;10516;51.518;9.864;2023-03-12T13:18:02;98049.84;;;2.85;84.22
20710;BME280;10516;51.518;9.864;2023-03-12T13:20:29;98048.22;;;2.84;85.18
20710;BME280;10516;51.518;9.864;2023-03-12T13:27:56;98049.31;;;2.77;85.54
20710;BME280;10516;51.518;9.864;2023-03-12T13:43:10;98049.91;;;3.15;83.54
20710;BME280;10516;51.518;9.864;2023-03-12T13:45:40;98041.72;;;3.23;82.66
20710;BME280;10516;51.518;9.864;2023-03-12T13:48:18;98037.03;;;3.25;82.51
20710;BME280;10516;51.518;9.864;2023-03-12T13:50:52;98038.69;;;3.38;81.77
20710;BME280;10516;51.518;9.864;2023-03-12T13:53:26;98037.22;;;3.24;83.69
20710;BME280;10516;51.518;9.864;2023-03-12T13:55:59;98029.75;;;3.39;82.36
20710;BME280;10516;51.518;9.864;2023-03-12T13:58:26;98021.72;;;3.16;83.55
20710;BME280;10516;51.518;9.864;2023-03-12T14:01:02;98022.13;;;3.31;82.82
20710;BME280;10516;51.518;9.864;2023-03-12T14:11:12;98043.06;;;3.44;83.06
20710;BME280;10516;51.518;9.864;2023-03-12T14:18:56;98023.19;;;3.30;84.53
20710;BME280;10516;51.518;9.864;2023-03-12T14:21:22;98026.66;;;3.42;83.97
20710;BME280;10516;51.518;9.864;2023-03-12T14:23:49;98018.00;;;3.53;82.62
20710;BME280;10516;51.518;9.864;2023-03-12T14:26:22;98020.72;;;3.46;84.40
20710;BME280;10516;51.518;9.864;2023-03-12T14:28:53;98009.75;;;3.61;82.36
20710;BME280;10516;51.518;9.864;2023-03-12T14:31:20;98005.53;;;3.60;83.36
20710;BME280;10516;51.518;9.864;2023-03-12T14:33:56;98005.16;;;3.56;84.92
20710;BME280;10516;51.518;9.864;2023-03-12T14:36:23;98003.00;;;3.65;83.77
20710;BME280;10516;51.518;9.864;2023-03-12T14:38:50;97998.81;;;3.75;82.70
20710;BME280;10516;51.518;9.864;2023-03-12T14:41:24;98001.13;;;3.84;83.05
20710;BME280;10516;51.518;9.864;2023-03-12T14:43:52;97989.03;;;3.76;83.82
20710;BME280;10516;51.518;9.864;2023-03-12T14:46:19;97996.16;;;3.75;83.18
20710;BME280;10516;51.518;9.864;2023-03-12T14:48:48;98001.34;;;3.82;82.58
20710;BME280;10516;51.518;9.864;2023-03-12T14:51:27;97995.69;;;3.78;83.67
20710;BME280;10516;51.518;9.864;2023-03-12T14:53:53;97986.19;;;3.77;83.55
20710;BME280;10516;51.518;9.864;2023-03-12T14:58:53;97994.59;;;3.86;83.26
20710;BME280;10516;51.518;9.864;2023-03-12T15:01:22;97982.88;;;3.82;83.60
20710;BME280;10516;51.518;9.864;2023-03-12T15:03:49;97985.47;;;3.70;85.76
20710;BME280;10516;51.518;9.864;2023-03-12T15:06:17;97984.38;;;3.90;83.56
20710;BME280;10516;51.518;9.864;2023-03-12T15:08:43;97985.19;;;3.90;85.20
20710;BME280;10516;51.518;9.864;2023-03-12T15:11:09;97994.81;;;3.96;84.18
20710;BME280;10516;51.518;9.864;2023-03-12T15:13:35;98003.91;;;3.89;84.81
20710;BME280;10516;51.518;9.864;2023-03-12T15:16:01;98004.88;;;3.76;85.85
20710;BME280;10516;51.518;9.864;2023-03-12T15:18:27;98016.63;;;3.92;84.88
20710;BME280;10516;51.518;9.864;2023-03-12T15:20:54;98014.34;;;3.95;84.51
20710;BME280;10516;51.518;9.864;2023-03-12T15:23:21;98017.88;;;3.89;85.72